Time;durP1;ratioP1;P1;durP2;ratioP2;P2;SDS_P1;SDS_P2;PMS_P1;PMS_P2;Temp;Humidity;BMP_temperature;BMP_pressure;BME280_temperature;BME280_humidity;BME280_pressure;Samples;Min_cycle;Max_cycle;Signal;HPM_P1;HPM_P2
2023/12/16 00:01:39;;;;;;;7.70;4.90;;;7.90;99.90;;;;;;4935467;29;20424;-78
2023/12/16 00:04:05;;;;;;;7.63;5.13;;;7.90;99.90;;;;;;4951188;29;20449;-78
2023/12/16 00:06:31;;;;;;;9.37;5.10;;;7.80;99.90;;;;;;4952722;29;20224;-77
2023/12/16 00:08:57;;;;;;;16.90;6.40;;;7.80;99.90;;;;;;4933064;29;20190;-78
2023/12/16 00:11:24;;;;;;;6.37;3.87;;;7.80;99.90;;;;;;4936622;29;20205;-78
2023/12/16 00:13:50;;;;;;;6.57;4.63;;;7.80;99.90;;;;;;4952252;29;20413;-77
2023/12/16 00:16:16;;;;;;;10.03;4.77;;;7.90;99.90;;;;;;4952524;29;20449;-76
2023/12/16 00:18:41;;;;;;;8.57;4.57;;;7.80;99.90;;;;;;4955503;29;20181;-77
2023/12/16 00:21:07;;;;;;;10.77;4.37;;;7.80;99.90;;;;;;4950454;29;20201;-75
2023/12/16 00:23:33;;;;;;;6.77;5.10;;;7.80;99.90;;;;;;4949892;29;20205;-75
2023/12/16 00:25:58;;;;;;;6.90;4.97;;;7.80;99.90;;;;;;4950269;29;20517;-78
2023/12/16 00:28:26;;;;;;;9.30;4.23;;;7.80;99.90;;;;;;4937387;29;20478;-76
2023/12/16 00:30:52;;;;;;;9.00;5.13;;;7.80;99.90;;;;;;4953135;29;20217;-74
2023/12/16 00:33:19;;;;;;;16.20;5.93;;;7.80;99.90;;;;;;4955275;29;20424;-76
2023/12/16 00:35:46;;;;;;;12.30;5.00;;;7.70;99.90;;;;;;4953642;29;20230;-76
2023/12/16 00:38:11;;;;;;;7.70;4.63;;;7.80;99.90;;;;;;4953375;29;20526;-75
2023/12/16 00:40:37;;;;;;;10.57;5.27;;;7.70;99.90;;;;;;4950025;29;20197;-76
2023/12/16 00:43:03;;;;;;;10.70;5.00;;;7.80;99.90;;;;;;4949179;29;20194;-74
2023/12/16 00:45:29;;;;;;;10.00;4.97;;;7.70;99.90;;;;;;4931734;29;20217;-75
2023/12/16 00:47:55;;;;;;;15.27;6.73;;;7.70;99.90;;;;;;4935048;29;20658;-76
2023/12/16 00:50:21;;;;;;;20.73;6.23;;;7.70;99.90;;;;;;4955434;29;20233;-75
2023/12/16 00:52:47;;;;;;;10.37;4.80;;;7.70;99.90;;;;;;4955783;29;20182;-75
2023/12/16 00:55:12;;;;;;;10.73;5.37;;;7.70;99.90;;;;;;4953428;29;20429;-76
2023/12/16 00:57:38;;;;;;;8.50;4.47;;;7.70;99.90;;;;;;4953629;29;20268;-75
2023/12/16 01:00:06;;;;;;;8.93;4.80;;;7.70;99.90;;;;;;4954447;29;20193;-77
2023/12/16 01:02:32;;;;;;;8.10;4.90;;;7.70;99.90;;;;;;4940428;29;20420;-76
2023/12/16 01:04:57;;;;;;;9.93;4.67;;;7.70;99.90;;;;;;4935608;29;20450;-75
2023/12/16 01:07:23;;;;;;;6.63;4.30;;;7.70;99.90;;;;;;4951397;29;20205;-76
2023/12/16 01:09:52;;;;;;;9.80;4.40;;;7.70;99.90;;;;;;4951889;29;20569;-75
2023/12/16 01:12:18;;;;;;;8.10;4.40;;;7.70;99.90;;;;;;4950716;29;20178;-77
2023/12/16 01:14:43;;;;;;;8.50;4.80;;;7.70;99.90;;;;;;4951631;29;20726;-75
2023/12/16 01:17:09;;;;;;;15.40;5.90;;;7.70;99.90;;;;;;4951508;29;20529;-75
2023/12/16 01:19:35;;;;;;;11.43;5.57;;;7.70;99.90;;;;;;4955079;29;20237;-75
2023/12/16 01:22:01;;;;;;;8.73;5.03;;;7.70;99.90;;;;;;4950342;29;20221;-75
2023/12/16 01:24:27;;;;;;;12.40;5.20;;;7.70;99.90;;;;;;4950025;29;20166;-76
2023/12/16 01:26:53;;;;;;;7.53;4.43;;;7.70;99.90;;;;;;4936630;29;20901;-76
2023/12/16 01:29:18;;;;;;;7.23;4.00;;;7.70;99.90;;;;;;4936529;29;20426;-76
2023/12/16 01:31:44;;;;;;;7.53;3.67;;;7.70;99.90;;;;;;4951006;29;20182;-76
2023/12/16 01:34:10;;;;;;;15.73;4.93;;;7.70;99.90;;;;;;4947186;29;20198;-75
2023/12/16 01:36:35;;;;;;;10.67;4.20;;;7.70;99.90;;;;;;4951846;29;20210;-75
2023/12/16 01:39:01;;;;;;;9.90;4.10;;;7.70;99.90;;;;;;4950238;29;20210;-74
2023/12/16 01:41:27;;;;;;;7.53;4.60;;;7.70;99.90;;;;;;4936804;29;20201;-75
2023/12/16 01:43:52;;;;;;;8.23;4.20;;;7.70;99.90;;;;;;4950631;29;20705;-76
2023/12/16 01:46:20;;;;;;;6.97;3.57;;;7.70;99.90;;;;;;4934059;29;20235;-76
2023/12/16 01:48:46;;;;;;;8.90;4.17;;;7.70;99.90;;;;;;4934141;29;20194;-75
2023/12/16 01:51:14;;;;;;;15.43;5.00;;;7.70;99.90;;;;;;4951732;29;20540;-76
2023/12/16 01:53:40;;;;;;;8.37;3.80;;;7.70;99.90;;;;;;4953448;29;20422;-75
2023/12/16 01:56:08;;;;;;;9.50;5.33;;;7.70;99.90;;;;;;4951707;29;20604;-75
2023/12/16 01:58:35;;;;;;;13.23;5.50;;;7.60;99.90;;;;;;4949284;29;20425;-75
2023/12/16 02:01:03;;;;;;;7.50;4.77;;;7.70;99.90;;;;;;4948072;29;20436;-75
2023/12/16 02:03:30;;;;;;;9.10;4.70;;;7.60;99.90;;;;;;4948665;29;20431;-74
2023/12/16 02:05:57;;;;;;;10.70;5.10;;;7.60;99.90;;;;;;4934554;29;20461;-76
2023/12/16 02:08:24;;;;;;;9.17;4.70;;;7.60;99.90;;;;;;4949704;29;20444;-76
2023/12/16 02:10:50;;;;;;;12.87;6.17;;;7.60;99.90;;;;;;4933533;29;20494;-77
2023/12/16 02:13:18;;;;;;;8.00;4.57;;;7.60;99.90;;;;;;4949791;29;20426;-74
2023/12/16 02:15:44;;;;;;;8.30;3.80;;;7.70;99.90;;;;;;4953866;29;20202;-78
2023/12/16 02:18:11;;;;;;;9.10;4.17;;;7.60;99.90;;;;;;4956987;29;20437;-78
2023/12/16 02:20:37;;;;;;;7.53;4.63;;;7.60;99.90;;;;;;4954202;29;20426;-75
2023/12/16 02:23:05;;;;;;;10.87;4.73;;;7.60;99.90;;;;;;4948066;29;20432;-74
2023/12/16 02:25:32;;;;;;;15.33;5.20;;;7.60;99.90;;;;;;4948050;29;20453;-75
2023/12/16 02:27:58;;;;;;;15.00;4.90;;;7.60;99.90;;;;;;4949028;29;20422;-75
2023/12/16 02:30:24;;;;;;;8.77;5.50;;;7.60;99.90;;;;;;4948377;29;20485;-76
2023/12/16 02:32:52;;;;;;;10.53;4.20;;;7.60;99.90;;;;;;4950281;29;20217;-75
2023/12/16 02:35:18;;;;;;;11.43;4.90;;;7.60;99.90;;;;;;4932647;29;20227;-75
2023/12/16 02:37:43;;;;;;;8.83;4.90;;;7.60;99.90;;;;;;4950128;29;20426;-75
2023/12/16 02:40:09;;;;;;;12.93;5.20;;;7.60;99.90;;;;;;4948250;29;20253;-74
2023/12/16 02:42:35;;;;;;;8.57;4.90;;;7.60;99.90;;;;;;4947725;29;20209;-74
2023/12/16 02:45:00;;;;;;;10.77;4.27;;;7.60;99.90;;;;;;4947918;29;20453;-75
2023/12/16 02:47:26;;;;;;;8.83;4.90;;;7.60;99.90;;;;;;4947449;29;20228;-76
2023/12/16 02:49:52;;;;;;;11.80;5.07;;;7.60;99.90;;;;;;4949248;29;20206;-75
2023/12/16 02:52:17;;;;;;;12.47;5.60;;;7.60;99.90;;;;;;4951470;29;20196;-75
2023/12/16 02:54:43;;;;;;;13.67;4.77;;;7.50;99.90;;;;;;4949881;29;20558;-74
2023/12/16 02:57:09;;;;;;;10.60;5.17;;;7.50;99.90;;;;;;4948711;29;20201;-76
2023/12/16 02:59:34;;;;;;;11.43;4.93;;;7.50;99.90;;;;;;4947287;29;20178;-75
2023/12/16 03:02:00;;;;;;;10.63;5.20;;;7.50;99.90;;;;;;4947437;29;20185;-75
2023/12/16 03:04:26;;;;;;;9.23;3.70;;;7.50;99.90;;;;;;4947292;29;20189;-75
2023/12/16 03:06:51;;;;;;;7.00;3.37;;;7.50;99.90;;;;;;4930610;29;20202;-75
2023/12/16 03:09:17;;;;;;;9.53;4.17;;;7.50;99.90;;;;;;4947937;29;20538;-75
2023/12/16 03:11:43;;;;;;;5.07;3.50;;;7.50;99.90;;;;;;4947363;29;20224;-76
2023/12/16 03:14:09;;;;;;;7.67;3.77;;;7.50;99.90;;;;;;4931727;29;20418;-74
2023/12/16 03:16:34;;;;;;;7.20;3.87;;;7.50;99.90;;;;;;4932312;29;20213;-74
2023/12/16 03:19:00;;;;;;;9.33;3.53;;;7.50;99.90;;;;;;4952428;29;20201;-75
2023/12/16 03:21:26;;;;;;;11.60;3.90;;;7.50;99.90;;;;;;4951641;29;20186;-74
2023/12/16 03:23:52;;;;;;;6.80;3.60;;;7.50;99.90;;;;;;4948962;29;20186;-74
2023/12/16 03:26:19;;;;;;;8.27;4.00;;;7.50;99.90;;;;;;4946887;29;20221;-74
2023/12/16 03:28:44;;;;;;;12.77;4.63;;;7.50;99.90;;;;;;4946256;29;20194;-74
2023/12/16 03:31:10;;;;;;;8.10;3.87;;;7.60;99.90;;;;;;4946825;29;20557;-74
2023/12/16 03:33:36;;;;;;;12.20;4.10;;;7.50;99.90;;;;;;4949384;29;20220;-75
2023/12/16 03:36:01;;;;;;;8.97;4.20;;;7.50;99.90;;;;;;4947362;29;20806;-73
2023/12/16 03:38:28;;;;;;;8.53;3.33;;;7.50;99.90;;;;;;4945153;29;20578;-74
2023/12/16 03:40:53;;;;;;;4.00;3.00;;;7.60;99.90;;;;;;4945267;29;20218;-75
2023/12/16 03:43:19;;;;;;;7.30;3.63;;;7.50;99.90;;;;;;4945481;29;20426;-74
2023/12/16 03:45:45;;;;;;;8.13;3.03;;;7.50;99.90;;;;;;4945388;29;20509;-74
2023/12/16 03:48:10;;;;;;;6.10;3.80;;;7.50;99.90;;;;;;4947259;29;20202;-73
2023/12/16 03:50:36;;;;;;;9.47;4.87;;;7.50;99.90;;;;;;4929584;29;20252;-73
2023/12/16 03:53:02;;;;;;;5.77;3.60;;;7.50;99.90;;;;;;4947206;29;20232;-73
2023/12/16 03:55:27;;;;;;;7.43;4.47;;;7.50;99.90;;;;;;4946227;29;20221;-74
2023/12/16 03:57:53;;;;;;;14.67;4.93;;;7.50;99.90;;;;;;4947195;29;20170;-75
2023/12/16 04:00:19;;;;;;;7.70;4.20;;;7.50;99.90;;;;;;4945606;29;20197;-75
2023/12/16 04:02:44;;;;;;;9.70;4.80;;;7.50;99.90;;;;;;4931292;29;20212;-74
2023/12/16 04:05:10;;;;;;;7.87;4.80;;;7.50;99.90;;;;;;4947276;29;20616;-75
2023/12/16 04:07:36;;;;;;;15.00;4.03;;;7.50;99.90;;;;;;4946497;29;20304;-74
2023/12/16 04:10:03;;;;;;;6.97;3.90;;;7.50;99.90;;;;;;4947264;29;20205;-76
2023/12/16 04:12:29;;;;;;;6.77;3.63;;;7.50;99.90;;;;;;4946540;29;20627;-75
2023/12/16 04:14:55;;;;;;;7.07;3.00;;;7.50;99.90;;;;;;4946901;29;20457;-75
2023/12/16 04:17:20;;;;;;;6.60;2.80;;;7.50;99.90;;;;;;4946323;29;20229;-74
2023/12/16 04:19:53;;;;;;;4.07;2.87;;;7.50;99.90;;;;;;4947589;29;20189;-74
2023/12/16 04:22:21;;;;;;;6.47;3.33;;;7.50;99.90;;;;;;4947141;29;20186;-74
2023/12/16 04:24:57;;;;;;;9.70;3.47;;;7.60;99.90;;;;;;4951368;29;20921;-76
2023/12/16 04:27:23;;;;;;;9.10;3.93;;;7.60;99.90;;;;;;4949527;29;20469;-75
2023/12/16 04:29:49;;;;;;;13.47;4.27;;;7.60;99.90;;;;;;4949311;29;20469;-74
2023/12/16 04:32:14;;;;;;;7.70;3.90;;;7.60;99.90;;;;;;4949035;29;20436;-75
2023/12/16 04:34:40;;;;;;;5.20;3.00;;;7.50;99.90;;;;;;4951328;28;20252;-73
2023/12/16 04:37:05;;;;;;;8.10;2.90;;;7.60;99.90;;;;;;4950662;29;20190;-75
2023/12/16 04:39:31;;;;;;;6.10;2.57;;;7.60;99.90;;;;;;4948637;29;20194;-74
2023/12/16 04:41:57;;;;;;;8.93;3.40;;;7.60;99.90;;;;;;4949821;29;20192;-76
2023/12/16 04:44:22;;;;;;;11.77;3.90;;;7.60;99.90;;;;;;4948956;29;20190;-75
2023/12/16 04:46:48;;;;;;;15.00;3.73;;;7.60;99.90;;;;;;4930991;29;20264;-75
2023/12/16 04:49:13;;;;;;;5.73;2.70;;;7.60;99.90;;;;;;4949571;29;20193;-73
2023/12/16 04:51:39;;;;;;;5.90;2.73;;;7.60;99.90;;;;;;4949368;29;20298;-75
2023/12/16 04:54:05;;;;;;;8.67;2.83;;;7.60;99.90;;;;;;4948962;29;20260;-74
2023/12/16 04:56:30;;;;;;;14.40;3.80;;;7.60;99.90;;;;;;4948515;29;20289;-73
2023/12/16 04:58:56;;;;;;;7.60;3.03;;;7.60;99.90;;;;;;4943050;29;20498;-73
2023/12/16 05:01:22;;;;;;;4.50;2.00;;;7.60;99.90;;;;;;4945621;29;20213;-74
2023/12/16 05:03:48;;;;;;;5.47;2.53;;;7.60;99.90;;;;;;4947898;29;20216;-75
2023/12/16 05:06:15;;;;;;;9.07;3.97;;;7.60;99.90;;;;;;4949699;29;20225;-73
2023/12/16 05:08:40;;;;;;;5.73;3.07;;;7.60;99.90;;;;;;4945840;29;20421;-74
2023/12/16 05:11:06;;;;;;;5.27;2.70;;;7.70;99.90;;;;;;4947289;29;20497;-74
2023/12/16 05:13:32;;;;;;;4.93;2.73;;;7.70;99.90;;;;;;4948935;29;20451;-74
2023/12/16 05:15:57;;;;;;;5.77;2.53;;;7.60;99.90;;;;;;4948589;29;20214;-74
2023/12/16 05:18:23;;;;;;;7.93;3.93;;;7.60;99.90;;;;;;4950329;29;20212;-73
2023/12/16 05:20:49;;;;;;;10.27;2.67;;;7.60;99.90;;;;;;4949928;29;20204;-74
2023/12/16 05:23:15;;;;;;;3.93;2.37;;;7.60;99.90;;;;;;4948609;29;20430;-73
2023/12/16 05:25:41;;;;;;;4.63;2.27;;;7.60;99.90;;;;;;4947833;29;20221;-73
2023/12/16 05:28:07;;;;;;;5.30;2.97;;;7.60;99.90;;;;;;4948905;29;20202;-74
2023/12/16 05:30:33;;;;;;;6.47;2.57;;;7.60;99.90;;;;;;4948546;29;20889;-73
2023/12/16 05:32:58;;;;;;;9.00;3.40;;;7.60;99.90;;;;;;4949754;29;20189;-74
2023/12/16 05:35:24;;;;;;;5.20;2.90;;;7.60;99.90;;;;;;4933527;29;20218;-75
2023/12/16 05:37:50;;;;;;;7.70;2.90;;;7.60;99.90;;;;;;4948160;29;20249;-74
2023/12/16 05:40:16;;;;;;;5.60;2.30;;;7.60;99.90;;;;;;4947838;29;20186;-77
2023/12/16 05:42:42;;;;;;;6.43;2.57;;;7.60;99.90;;;;;;4949999;29;20190;-74
2023/12/16 05:45:08;;;;;;;8.77;2.90;;;7.60;99.90;;;;;;4948176;29;20464;-74
2023/12/16 05:47:34;;;;;;;3.97;2.20;;;7.60;99.90;;;;;;4949105;29;20445;-74
2023/12/16 05:50:01;;;;;;;3.00;2.13;;;7.60;99.90;;;;;;4931143;29;20474;-74
2023/12/16 05:52:26;;;;;;;5.83;1.83;;;7.60;99.90;;;;;;4949699;29;20444;-74
2023/12/16 05:54:52;;;;;;;5.97;2.50;;;7.60;99.90;;;;;;4949359;29;20501;-76
2023/12/16 05:57:17;;;;;;;11.77;3.03;;;7.60;99.90;;;;;;4947137;29;20201;-75
2023/12/16 05:59:43;;;;;;;4.00;2.10;;;7.60;99.90;;;;;;4948144;29;20542;-75
2023/12/16 06:02:09;;;;;;;4.60;2.10;;;7.60;99.90;;;;;;4947614;29;20174;-72
2023/12/16 06:04:34;;;;;;;7.27;2.20;;;7.60;99.90;;;;;;4947281;29;20182;-75
2023/12/16 06:07:00;;;;;;;4.37;2.50;;;7.60;99.90;;;;;;4947215;29;20779;-74
2023/12/16 06:09:26;;;;;;;5.27;2.83;;;7.60;99.90;;;;;;4947867;29;20277;-73
2023/12/16 06:11:51;;;;;;;12.70;3.67;;;7.60;99.90;;;;;;4947141;29;20645;-75
2023/12/16 06:14:17;;;;;;;6.47;2.20;;;7.60;99.90;;;;;;4949563;29;20182;-74
2023/12/16 06:16:43;;;;;;;7.07;2.23;;;7.60;99.90;;;;;;4948945;29;20233;-73
2023/12/16 06:19:08;;;;;;;4.87;2.10;;;7.60;99.90;;;;;;4947380;29;20190;-74
2023/12/16 06:21:34;;;;;;;6.23;2.40;;;7.60;99.90;;;;;;4947506;29;20201;-75
2023/12/16 06:24:00;;;;;;;6.33;2.10;;;7.60;99.90;;;;;;4947073;29;20206;-74
2023/12/16 06:26:26;;;;;;;5.20;2.80;;;7.60;99.90;;;;;;4947065;29;20225;-74
2023/12/16 06:28:51;;;;;;;5.30;2.80;;;7.60;99.90;;;;;;4947245;29;20504;-73
2023/12/16 06:31:18;;;;;;;5.20;2.53;;;7.60;99.90;;;;;;4948156;29;20473;-74
2023/12/16 06:33:44;;;;;;;5.80;2.17;;;7.60;99.90;;;;;;4947708;29;20229;-74
2023/12/16 06:36:10;;;;;;;6.83;1.93;;;7.70;99.90;;;;;;4947773;29;20460;-74
2023/12/16 06:38:36;;;;;;;6.23;2.53;;;7.70;99.90;;;;;;4948362;29;20422;-74
2023/12/16 06:41:03;;;;;;;4.60;2.07;;;7.60;99.90;;;;;;4948733;29;20276;-73
2023/12/16 06:43:28;;;;;;;4.10;2.30;;;7.60;99.90;;;;;;4948278;29;20418;-76
2023/12/16 06:45:54;;;;;;;7.73;2.97;;;7.60;99.90;;;;;;4931760;29;20456;-75
2023/12/16 06:48:21;;;;;;;3.63;1.70;;;7.70;99.90;;;;;;4948565;29;20206;-75
2023/12/16 06:50:46;;;;;;;6.90;2.80;;;7.60;99.90;;;;;;4932340;29;20472;-75
2023/12/16 06:53:12;;;;;;;5.33;2.63;;;7.70;99.90;;;;;;4948022;29;20418;-74
2023/12/16 06:55:38;;;;;;;5.10;2.70;;;7.60;99.90;;;;;;4946974;29;20243;-74
2023/12/16 06:58:04;;;;;;;8.20;3.20;;;7.70;99.90;;;;;;4946747;29;20712;-75
2023/12/16 07:00:30;;;;;;;6.40;2.67;;;7.70;99.90;;;;;;4948670;29;20182;-74
2023/12/16 07:02:55;;;;;;;13.10;4.27;;;7.60;99.90;;;;;;4950258;29;20421;-75
2023/12/16 07:05:21;;;;;;;8.87;3.40;;;7.70;99.90;;;;;;4932251;29;20618;-74
2023/12/16 07:07:47;;;;;;;11.10;2.90;;;7.70;99.90;;;;;;4949646;29;20325;-74
2023/12/16 07:10:13;;;;;;;6.50;3.40;;;7.70;99.90;;;;;;4947521;29;20217;-77
2023/12/16 07:12:41;;;;;;;11.57;3.80;;;7.70;99.90;;;;;;4950068;29;20653;-75
2023/12/16 07:15:07;;;;;;;6.67;3.33;;;7.70;99.90;;;;;;4947295;29;20434;-75
2023/12/16 07:17:33;;;;;;;11.50;4.50;;;7.70;99.90;;;;;;4947533;29;20204;-74
2023/12/16 07:19:59;;;;;;;7.27;3.40;;;7.70;99.90;;;;;;4947375;29;20470;-74
2023/12/16 07:22:25;;;;;;;10.70;3.60;;;7.70;99.90;;;;;;4947543;29;20204;-75
2023/12/16 07:24:51;;;;;;;6.47;3.47;;;7.70;99.90;;;;;;4947678;29;20206;-76
2023/12/16 07:27:16;;;;;;;6.20;2.60;;;7.70;99.90;;;;;;4946336;29;20468;-73
2023/12/16 07:29:42;;;;;;;5.03;2.27;;;7.70;99.90;;;;;;4947026;29;20234;-76
2023/12/16 07:32:08;;;;;;;9.30;3.00;;;7.70;99.90;;;;;;4933261;29;20267;-75
2023/12/16 07:34:34;;;;;;;8.00;3.50;;;7.70;99.90;;;;;;4932342;29;20186;-76
2023/12/16 07:36:59;;;;;;;10.00;4.53;;;7.70;99.90;;;;;;4946743;29;20189;-76
2023/12/16 07:39:25;;;;;;;8.40;3.13;;;7.70;99.90;;;;;;4949097;29;20410;-75
2023/12/16 07:41:51;;;;;;;5.10;2.47;;;7.80;99.90;;;;;;4949159;29;20218;-76
2023/12/16 07:44:16;;;;;;;6.63;2.80;;;7.80;99.90;;;;;;4933641;29;20176;-78
2023/12/16 07:46:42;;;;;;;5.13;2.70;;;7.80;99.90;;;;;;4949541;29;20189;-76
2023/12/16 07:49:08;;;;;;;6.30;2.27;;;7.80;99.90;;;;;;4951094;29;20202;-75
2023/12/16 07:51:36;;;;;;;7.00;2.63;;;7.80;99.90;;;;;;4952527;29;20464;-76
2023/12/16 07:54:02;;;;;;;3.67;2.37;;;7.80;99.90;;;;;;4954693;29;20414;-75
2023/12/16 07:56:28;;;;;;;11.17;2.83;;;7.80;99.90;;;;;;4953317;29;20453;-77
2023/12/16 07:58:54;;;;;;;6.07;2.53;;;7.80;99.90;;;;;;4952252;29;20418;-76
2023/12/16 08:01:20;;;;;;;5.13;2.17;;;7.80;99.90;;;;;;4951041;29;20456;-76
2023/12/16 08:03:47;;;;;;;8.57;2.93;;;7.70;99.90;;;;;;4950546;29;20421;-75
2023/12/16 08:06:17;;;;;;;11.00;3.27;;;7.70;99.90;;;;;;4935965;29;20516;-74
2023/12/16 08:08:43;;;;;;;8.33;2.77;;;7.70;99.90;;;;;;4949405;29;20478;-73
2023/12/16 08:11:10;;;;;;;7.37;3.33;;;7.70;99.90;;;;;;4947990;29;20453;-75
2023/12/16 08:13:36;;;;;;;6.50;2.60;;;7.70;99.90;;;;;;4950574;29;20490;-74
2023/12/16 08:16:04;;;;;;;10.13;3.53;;;7.70;99.90;;;;;;4951294;29;20469;-75
2023/12/16 08:18:30;;;;;;;9.70;2.70;;;7.70;99.90;;;;;;4960651;29;20185;-77
2023/12/16 08:20:56;;;;;;;9.60;3.23;;;7.70;99.90;;;;;;4948881;29;20504;-75
2023/12/16 08:23:22;;;;;;;9.27;2.90;;;7.70;99.90;;;;;;4949039;29;20675;-77
2023/12/16 08:25:48;;;;;;;7.43;3.30;;;7.70;99.90;;;;;;4950409;29;20661;-75
2023/12/16 08:28:13;;;;;;;14.13;3.37;;;7.70;99.90;;;;;;4949693;29;20202;-76
2023/12/16 08:30:39;;;;;;;10.53;3.17;;;7.80;99.90;;;;;;4952275;29;20217;-78
2023/12/16 08:33:06;;;;;;;10.63;3.57;;;7.80;99.90;;;;;;4953259;29;20197;-75
2023/12/16 08:35:34;;;;;;;10.93;2.60;;;7.90;99.90;;;;;;4950432;29;20437;-77
2023/12/16 08:38:01;;;;;;;5.40;2.70;;;7.90;99.90;;;;;;4948982;29;20426;-77
2023/12/16 08:40:26;;;;;;;6.73;2.87;;;8.00;99.90;;;;;;4951418;29;20468;-76
2023/12/16 08:42:52;;;;;;;9.90;3.30;;;8.00;99.90;;;;;;4948721;29;20442;-75
2023/12/16 08:45:18;;;;;;;5.73;2.87;;;8.10;99.90;;;;;;4948884;29;20217;-76
2023/12/16 08:47:44;;;;;;;10.97;3.73;;;8.10;99.90;;;;;;4954046;29;20195;-76
2023/12/16 08:50:10;;;;;;;6.63;3.53;;;8.10;99.90;;;;;;4949984;29;20202;-74
2023/12/16 08:52:37;;;;;;;6.87;2.70;;;8.00;99.90;;;;;;4950157;29;20422;-78
2023/12/16 08:55:06;;;;;;;6.70;2.97;;;8.10;99.90;;;;;;4950601;29;20755;-75
2023/12/16 08:57:32;;;;;;;7.00;2.70;;;8.00;99.90;;;;;;4951271;29;20504;-76
2023/12/16 08:59:58;;;;;;;6.50;2.40;;;8.00;99.90;;;;;;4916873;29;20460;-77
2023/12/16 09:02:24;;;;;;;7.00;2.67;;;7.90;99.90;;;;;;4949411;29;20414;-75
2023/12/16 09:04:50;;;;;;;9.33;3.73;;;7.90;99.90;;;;;;4950635;29;20585;-76
2023/12/16 09:07:17;;;;;;;11.00;2.77;;;7.90;99.90;;;;;;4950576;29;20212;-74
2023/12/16 09:09:44;;;;;;;9.33;3.20;;;7.90;99.90;;;;;;4951012;29;20770;-76
2023/12/16 09:12:11;;;;;;;6.40;2.30;;;7.90;99.90;;;;;;4955544;29;20421;-78
2023/12/16 09:14:38;;;;;;;5.30;2.33;;;7.90;99.90;;;;;;4953627;29;20429;-76
2023/12/16 09:17:04;;;;;;;5.00;2.97;;;8.00;99.90;;;;;;4935834;29;20510;-76
2023/12/16 09:19:30;;;;;;;3.67;2.23;;;8.00;99.90;;;;;;4953524;29;20429;-76
2023/12/16 09:21:56;;;;;;;5.50;2.63;;;8.10;99.90;;;;;;4936913;29;20433;-76
2023/12/16 09:24:22;;;;;;;3.67;2.30;;;8.20;99.90;;;;;;4936860;29;20518;-76
2023/12/16 09:26:47;;;;;;;4.83;2.10;;;8.20;99.90;;;;;;4953248;29;20222;-77
2023/12/16 09:29:13;;;;;;;12.37;6.83;;;8.30;99.90;;;;;;4952468;29;20229;-76
2023/12/16 09:31:39;;;;;;;4.30;3.10;;;8.40;99.90;;;;;;4952228;29;20244;-75
2023/12/16 09:34:05;;;;;;;15.27;4.30;;;8.40;99.90;;;;;;4953438;29;20193;-77
2023/12/16 09:36:31;;;;;;;9.83;4.13;;;8.50;99.90;;;;;;4954318;29;20445;-76
2023/12/16 09:38:57;;;;;;;12.80;4.30;;;8.50;99.90;;;;;;4952188;29;20221;-76
2023/12/16 09:41:25;;;;;;;11.47;4.60;;;8.60;99.90;;;;;;4952096;29;20196;-77
2023/12/16 09:43:53;;;;;;;6.20;3.90;;;8.80;99.90;;;;;;4936898;29;20437;-76
2023/12/16 09:46:23;;;;;;;9.40;3.83;;;8.90;99.90;;;;;;4936721;29;20441;-76
2023/12/16 09:48:51;;;;;;;5.47;2.87;;;9.10;99.90;;;;;;4949139;29;20437;-76
2023/12/16 09:51:17;;;;;;;8.33;3.60;;;9.20;99.90;;;;;;4953901;29;20449;-77
2023/12/16 09:53:43;;;;;;;13.43;4.13;;;9.30;99.90;;;;;;4939002;29;20429;-75
2023/12/16 09:56:13;;;;;;;16.87;5.93;;;9.30;99.90;;;;;;4939034;29;20538;-77
2023/12/16 09:58:43;;;;;;;14.57;6.40;;;9.40;99.90;;;;;;4939182;29;20425;-79
2023/12/16 10:01:13;;;;;;;8.20;4.10;;;9.40;99.90;;;;;;4954058;29;20424;-78
2023/12/16 10:03:40;;;;;;;8.43;3.13;;;9.40;99.20;;;;;;4953756;29;20422;-77
2023/12/16 10:06:08;;;;;;;9.03;3.30;;;9.40;99.30;;;;;;4952674;29;20441;-77
2023/12/16 10:08:38;;;;;;;12.00;4.30;;;9.50;99.10;;;;;;4954539;29;20460;-78
2023/12/16 10:11:05;;;;;;;8.40;3.57;;;9.60;99.20;;;;;;4953714;29;20761;-77
2023/12/16 10:13:33;;;;;;;12.63;4.47;;;9.60;98.90;;;;;;4953183;29;20449;-76
2023/12/16 10:15:59;;;;;;;11.07;3.20;;;9.80;97.60;;;;;;4955543;29;20446;-75
2023/12/16 10:18:28;;;;;;;8.30;3.53;;;9.80;96.50;;;;;;4955404;29;20429;-78
2023/12/16 10:20:57;;;;;;;6.37;4.10;;;9.90;95.90;;;;;;4934140;29;20426;-77
2023/12/16 10:23:24;;;;;;;9.20;3.50;;;9.90;96.00;;;;;;4935704;29;20429;-76
2023/12/16 10:25:50;;;;;;;11.77;5.10;;;10.10;94.30;;;;;;4952327;29;20480;-78
2023/12/16 10:28:18;;;;;;;14.37;5.40;;;10.20;93.00;;;;;;4955732;29;20410;-80
2023/12/16 10:30:44;;;;;;;8.90;4.60;;;10.20;92.70;;;;;;4937606;29;20530;-78
2023/12/16 10:33:10;;;;;;;9.47;4.23;;;10.20;92.50;;;;;;4936772;29;20429;-79
2023/12/16 10:35:37;;;;;;;11.50;4.70;;;10.30;91.90;;;;;;4953751;29;20450;-77
2023/12/16 10:38:04;;;;;;;10.20;4.37;;;10.30;92.00;;;;;;4952646;29;20438;-78
2023/12/16 10:40:31;;;;;;;8.10;4.00;;;10.40;91.50;;;;;;4954498;29;20837;-77
2023/12/16 10:42:57;;;;;;;11.97;4.53;;;10.50;91.00;;;;;;4938655;29;20426;-78
2023/12/16 10:45:25;;;;;;;8.37;3.97;;;10.50;91.30;;;;;;4954975;29;20539;-80
2023/12/16 10:48:04;;;;;;;10.00;4.00;;;10.50;90.90;;;;;;4940509;29;20225;-79
2023/12/16 10:50:32;;;;;;;8.23;3.70;;;10.60;90.80;;;;;;4925526;29;20444;-77
2023/12/16 10:53:02;;;;;;;6.00;2.57;;;10.70;90.40;;;;;;4923974;29;20504;-79
2023/12/16 10:55:30;;;;;;;7.97;3.00;;;10.70;90.30;;;;;;4937676;29;20521;-78
2023/12/16 10:58:25;;;;;;;12.83;5.00;;;10.90;90.40;;;;;;4952949;29;20461;-79
2023/12/16 11:00:52;;;;;;;10.80;5.10;;;11.00;89.00;;;;;;4937505;29;20691;-77
2023/12/16 11:03:29;;;;;;;12.43;5.20;;;11.00;87.80;;;;;;4926225;29;20425;-78
2023/12/16 11:06:06;;;;;;;11.67;4.13;;;11.10;87.30;;;;;;4948995;29;20460;-77
2023/12/16 11:08:34;;;;;;;7.40;3.70;;;11.20;87.40;;;;;;4951786;29;20430;-77
2023/12/16 11:11:01;;;;;;;7.37;2.63;;;11.30;86.30;;;;;;4921378;29;20542;-80
2023/12/16 11:13:28;;;;;;;7.03;3.20;;;11.50;86.50;;;;;;4922873;29;20429;-79
2023/12/16 11:16:02;;;;;;;6.27;2.90;;;11.70;85.60;;;;;;4942589;29;20451;-80
2023/12/16 11:18:30;;;;;;;12.73;3.73;;;11.70;84.40;;;;;;4946061;29;20442;-77
2023/12/16 11:21:04;;;;;;;7.30;3.00;;;11.80;83.50;;;;;;4938997;29;20424;-78
2023/12/16 11:23:31;;;;;;;9.70;2.90;;;11.90;83.80;;;;;;4954407;29;20469;-79
2023/12/16 11:26:05;;;;;;;14.17;4.57;;;11.90;82.50;;;;;;4955311;29;20473;-79
2023/12/16 11:28:31;;;;;;;10.53;3.50;;;11.90;80.60;;;;;;4954629;29;20904;-79
2023/12/16 11:30:58;;;;;;;6.93;3.60;;;11.90;81.50;;;;;;4955527;29;20457;-79
2023/12/16 11:33:23;;;;;;;13.53;3.67;;;11.90;81.40;;;;;;4954215;29;20169;-78
2023/12/16 11:35:52;;;;;;;11.37;2.90;;;12.00;80.10;;;;;;4954297;29;20504;-80
2023/12/16 11:38:40;;;;;;;7.73;2.60;;;12.00;80.80;;;;;;4919749;29;20221;-79
2023/12/16 11:41:06;;;;;;;4.70;2.40;;;11.90;80.90;;;;;;4935678;29;20422;-79
2023/12/16 11:43:53;;;;;;;10.03;2.77;;;12.00;81.40;;;;;;4919737;29;20783;-79
2023/12/16 11:46:41;;;;;;;13.10;4.00;;;12.00;81.20;;;;;;4928159;29;20528;-80
2023/12/16 11:49:14;;;;;;;9.40;3.93;;;12.00;81.50;;;;;;4919165;29;20779;-78
2023/12/16 11:51:50;;;;;;;8.17;2.47;;;12.00;81.50;;;;;;4911921;29;20507;-79
2023/12/16 11:54:16;;;;;;;7.70;2.80;;;12.00;82.10;;;;;;4914683;29;20431;-80
2023/12/16 11:56:42;;;;;;;9.20;3.00;;;12.00;82.10;;;;;;4917330;29;20450;-77
2023/12/16 11:59:08;;;;;;;8.03;2.57;;;12.00;82.60;;;;;;4918512;29;20423;-80
2023/12/16 12:01:35;;;;;;;8.43;3.60;;;12.00;82.20;;;;;;4899619;29;20427;-79
2023/12/16 12:04:04;;;;;;;9.70;3.63;;;11.90;82.70;;;;;;4919054;29;20485;-79
2023/12/16 12:06:30;;;;;;;8.40;2.93;;;11.80;83.30;;;;;;4917300;29;20450;-79
2023/12/16 12:08:56;;;;;;;13.47;3.30;;;11.70;83.80;;;;;;4930688;29;20410;-79
2023/12/16 12:11:22;;;;;;;6.33;3.27;;;11.60;84.30;;;;;;4956431;29;20450;-79
2023/12/16 12:13:52;;;;;;;12.50;5.70;;;11.50;84.60;;;;;;4955584;29;20427;-79
2023/12/16 12:16:18;;;;;;;7.80;4.87;;;11.50;85.10;;;;;;4937459;29;20457;-80
2023/12/16 12:18:44;;;;;;;9.53;4.10;;;11.50;86.20;;;;;;4954864;29;20917;-78
2023/12/16 12:21:10;;;;;;;6.43;3.10;;;11.40;86.80;;;;;;4955551;29;20425;-81
2023/12/16 12:23:37;;;;;;;9.00;3.30;;;11.40;87.70;;;;;;4956716;29;20184;-79
2023/12/16 12:26:03;;;;;;;14.33;4.83;;;11.40;88.30;;;;;;4940013;29;20482;-81
2023/12/16 12:28:30;;;;;;;14.20;3.53;;;11.40;88.60;;;;;;4939878;29;20426;-80
2023/12/16 12:31:09;;;;;;;15.23;3.30;;;11.50;89.50;;;;;;4956113;29;20472;-80
2023/12/16 12:33:35;;;;;;;8.03;3.47;;;11.40;90.20;;;;;;4922374;29;20526;-81
2023/12/16 12:36:02;;;;;;;9.60;3.47;;;11.50;90.60;;;;;;4938632;29;20521;-80
2023/12/16 12:38:32;;;;;;;9.00;3.73;;;11.60;90.70;;;;;;4954331;29;20423;-81
2023/12/16 12:41:04;;;;;;;13.13;4.23;;;11.60;90.60;;;;;;4941065;29;20449;-78
2023/12/16 12:43:34;;;;;;;16.67;5.80;;;11.70;90.30;;;;;;4956085;29;20428;-78
2023/12/16 12:46:08;;;;;;;7.00;2.93;;;11.60;90.50;;;;;;4959335;29;20476;-79
2023/12/16 12:48:36;;;;;;;13.77;3.97;;;11.60;90.90;;;;;;4958090;29;20447;-79
2023/12/16 12:51:08;;;;;;;12.90;2.90;;;11.60;90.70;;;;;;4959503;29;20469;-79